Time;durP1;ratioP1;P1;durP2;ratioP2;P2;SDS_P1;SDS_P2;PMS_P1;PMS_P2;Temp;Humidity;BMP_temperature;BMP_pressure;BME280_temperature;BME280_humidity;BME280_pressure;Samples;Min_cycle;Max_cycle;Signal;HPM_P1;HPM_P2
2023/12/22 00:01:03;;;;;;;14.40;2.45;;;;;;;;;;4999175;28;20040;-79
2023/12/22 00:06:48;;;;;;;5.18;0.75;;;;;;;;;;4961552;28;20048;-78
2023/12/22 00:09:21;;;;;;;10.70;1.42;;;;;;;;;;4988030;28;20129;-79
2023/12/22 00:11:46;;;;;;;9.98;1.45;;;;;;;;;;4997693;28;20084;-79
2023/12/22 00:14:11;;;;;;;9.85;1.50;;;;;;;;;;4977343;28;20026;-79
2023/12/22 00:16:45;;;;;;;9.70;1.50;;;;;;;;;;4985859;28;20076;-79
2023/12/22 00:19:10;;;;;;;10.02;1.58;;;;;;;;;;4977846;28;20031;-79
2023/12/22 00:21:35;;;;;;;12.10;1.85;;;;;;;;;;4976132;28;20086;-78
2023/12/22 00:24:23;;;;;;;9.43;1.63;;;;;;;;;;4992656;28;20061;-79
2023/12/22 00:27:55;;;;;;;4.78;1.08;;;;;;;;;;4997327;28;20037;-78
2023/12/22 00:31:01;;;;;;;8.27;1.63;;;;;;;;;;4993058;28;20720;-78
2023/12/22 00:41:15;;;;;;;;;;;;;;;;;;;;;
2023/12/22 00:54:20;;;;;;;7.45;1.75;;;;;;;;;;4997876;28;20089;-78
2023/12/22 00:57:09;;;;;;;4.35;1.10;;;;;;;;;;4998846;28;20031;-79
2023/12/22 00:59:37;;;;;;;7.82;1.88;;;;;;;;;;4998013;28;20041;-79
2023/12/22 01:02:28;;;;;;;13.45;1.80;;;;;;;;;;4993959;28;20068;-78
2023/12/22 01:04:53;;;;;;;12.40;1.77;;;;;;;;;;4997467;28;20026;-79
2023/12/22 01:07:21;;;;;;;10.60;1.80;;;;;;;;;;5012298;28;20048;-78
2023/12/22 01:10:12;;;;;;;9.10;1.45;;;;;;;;;;4996190;28;20022;-79
2023/12/22 01:13:09;;;;;;;7.38;1.40;;;;;;;;;;4990728;28;20129;-78
2023/12/22 01:15:35;;;;;;;13.77;1.90;;;;;;;;;;4922694;29;20157;-78
2023/12/22 01:18:03;;;;;;;6.15;1.58;;;;;;;;;;4973519;28;20142;-78
2023/12/22 01:20:33;;;;;;;6.85;1.38;;;;;;;;;;4985210;28;20097;-77
2023/12/22 01:22:58;;;;;;;7.45;1.80;;;;;;;;;;4996695;28;20039;-77
2023/12/22 01:25:24;;;;;;;12.27;1.65;;;;;;;;;;4977718;28;20053;-79
2023/12/22 01:27:52;;;;;;;7.50;1.42;;;;;;;;;;4975224;28;20389;-79
2023/12/22 01:30:19;;;;;;;12.80;2.65;;;;;;;;;;4977397;28;20027;-78
2023/12/22 01:36:14;;;;;;;7.47;1.30;;;;;;;;;;4971672;28;20709;-78
2023/12/22 01:38:39;;;;;;;8.05;1.38;;;;;;;;;;4995406;28;20040;-81
2023/12/22 01:41:04;;;;;;;14.13;2.35;;;;;;;;;;4985143;28;20106;-79
2023/12/22 01:43:29;;;;;;;7.60;1.65;;;;;;;;;;4985934;28;20030;-78
2023/12/22 01:45:59;;;;;;;10.38;1.63;;;;;;;;;;4990713;28;20192;-78
2023/12/22 01:48:37;;;;;;;9.50;1.80;;;;;;;;;;4981599;28;20072;-79
2023/12/22 01:51:06;;;;;;;11.70;2.15;;;;;;;;;;4996684;28;20090;-79
2023/12/22 01:53:32;;;;;;;7.15;1.70;;;;;;;;;;5010105;28;20069;-78
2023/12/22 01:59:39;;;;;;;5.35;1.50;;;;;;;;;;5003834;28;20030;-79
2023/12/22 02:02:16;;;;;;;14.18;1.65;;;;;;;;;;4998053;28;20046;-80
2023/12/22 02:04:49;;;;;;;16.45;1.77;;;;;;;;;;5026054;28;20092;-80
2023/12/22 02:10:38;;;;;;;9.40;1.65;;;;;;;;;;4976394;28;20058;-79
2023/12/22 02:13:21;;;;;;;9.18;1.77;;;;;;;;;;4982603;28;20034;-78
2023/12/22 02:16:00;;;;;;;10.65;1.58;;;;;;;;;;4995136;28;20026;-78
2023/12/22 02:22:10;;;;;;;7.80;1.35;;;;;;;;;;4952642;28;20074;-78
2023/12/22 02:25:06;;;;;;;11.55;1.83;;;;;;;;;;4988875;28;20560;-78
2023/12/22 02:41:24;;;;;;;12.57;1.60;;;;;;;;;;4918789;29;20047;-79
2023/12/22 02:47:38;;;;;;;12.70;1.63;;;;;;;;;;4950130;28;20419;-78
2023/12/22 02:50:39;;;;;;;11.27;1.70;;;;;;;;;;4935796;29;20522;-78
2023/12/22 02:53:09;;;;;;;9.52;2.22;;;;;;;;;;4880311;29;20108;-78
2023/12/22 02:55:35;;;;;;;10.55;1.98;;;;;;;;;;4973749;28;20042;-78
2023/12/22 02:58:00;;;;;;;14.80;2.70;;;;;;;;;;4980973;28;20037;-79
2023/12/22 03:00:25;;;;;;;11.88;1.83;;;;;;;;;;4980903;28;20041;-78
2023/12/22 03:02:50;;;;;;;14.32;1.92;;;;;;;;;;4992912;28;20120;-78
2023/12/22 03:05:15;;;;;;;12.07;1.63;;;;;;;;;;5002161;28;20379;-78
2023/12/22 03:07:41;;;;;;;11.00;1.98;;;;;;;;;;4978146;28;20030;-77
2023/12/22 03:10:06;;;;;;;13.02;2.20;;;;;;;;;;4985855;28;20084;-78
2023/12/22 03:12:31;;;;;;;7.93;1.83;;;;;;;;;;5018505;28;20503;-79
2023/12/22 03:14:57;;;;;;;11.47;1.90;;;;;;;;;;4999652;28;20114;-78
2023/12/22 03:17:22;;;;;;;13.35;2.70;;;;;;;;;;4997091;28;20805;-78
2023/12/22 03:19:47;;;;;;;8.87;1.80;;;;;;;;;;5000770;28;20393;-78
2023/12/22 03:22:12;;;;;;;9.77;1.70;;;;;;;;;;4993935;28;20309;-77
2023/12/22 03:24:38;;;;;;;7.13;1.60;;;;;;;;;;4995857;28;20647;-77
2023/12/22 03:27:04;;;;;;;16.33;2.33;;;;;;;;;;4997953;28;20604;-78
2023/12/22 03:29:29;;;;;;;12.30;2.05;;;;;;;;;;4995464;28;20030;-78
2023/12/22 03:31:54;;;;;;;10.87;2.40;;;;;;;;;;4993436;28;20104;-77
2023/12/22 03:34:19;;;;;;;12.73;2.10;;;;;;;;;;4996680;28;20280;-77
2023/12/22 03:36:48;;;;;;;9.57;1.90;;;;;;;;;;4996383;28;20026;-77
2023/12/22 03:39:13;;;;;;;10.27;1.88;;;;;;;;;;4994578;28;20014;-79
2023/12/22 03:41:39;;;;;;;15.63;2.20;;;;;;;;;;4995868;28;20088;-78
2023/12/22 03:44:04;;;;;;;7.45;1.38;;;;;;;;;;4997588;28;20486;-78
2023/12/22 04:01:13;;;;;;;;;;;;;;;;;;;;;
2023/12/22 04:07:45;;;;;;;10.43;1.92;;;;;;;;;;5110670;22;20080;-79
2023/12/22 04:10:44;;;;;;;;;;;;;;;;;;;;;
2023/12/22 04:16:32;;;;;;;5.47;1.33;;;;;;;;;;5023903;28;20516;-79
2023/12/22 04:19:38;;;;;;;7.90;1.92;;;;;;;;;;5019722;28;20037;-79
2023/12/22 04:22:26;;;;;;;6.03;1.30;;;;;;;;;;5009523;28;20056;-79
2023/12/22 04:24:52;;;;;;;15.98;1.85;;;;;;;;;;5018805;28;20059;-79
2023/12/22 04:27:22;;;;;;;9.68;1.35;;;;;;;;;;5014828;28;20567;-78
2023/12/22 04:30:47;;;;;;;8.40;1.52;;;;;;;;;;5015950;28;20022;-78
2023/12/22 04:34:27;;;;;;;7.18;1.88;;;;;;;;;;4959565;28;20038;-79
2023/12/22 04:37:40;;;;;;;11.98;1.70;;;;;;;;;;4972508;28;20035;-78
2023/12/22 04:43:22;;;;;;;5.68;1.25;;;;;;;;;;4975546;28;20514;-79
2023/12/22 04:45:55;;;;;;;4.28;1.30;;;;;;;;;;5017560;28;20046;-78
2023/12/22 04:48:26;;;;;;;5.50;1.30;;;;;;;;;;5003196;28;20045;-78
2023/12/22 04:50:59;;;;;;;9.15;1.95;;;;;;;;;;5000637;28;20022;-77
2023/12/22 04:53:45;;;;;;;4.93;1.08;;;;;;;;;;5004990;28;20041;-78
2023/12/22 04:56:32;;;;;;;7.32;1.05;;;;;;;;;;5006567;28;20113;-78
2023/12/22 04:59:08;;;;;;;6.28;1.50;;;;;;;;;;5015128;28;20061;-78
2023/12/22 05:01:59;;;;;;;3.70;1.25;;;;;;;;;;5016147;28;20033;-79
2023/12/22 05:04:24;;;;;;;7.28;1.23;;;;;;;;;;5012092;28;20064;-78
2023/12/22 05:06:49;;;;;;;4.97;0.80;;;;;;;;;;5013847;28;20056;-80
2023/12/22 05:09:57;;;;;;;5.43;1.02;;;;;;;;;;5015719;28;20017;-78
2023/12/22 05:12:27;;;;;;;4.07;1.08;;;;;;;;;;5013768;28;20026;-77
2023/12/22 05:14:52;;;;;;;4.68;1.33;;;;;;;;;;5013770;28;20060;-77
2023/12/22 05:17:17;;;;;;;8.98;1.08;;;;;;;;;;5016514;28;20030;-78
2023/12/22 05:19:43;;;;;;;4.80;1.00;;;;;;;;;;5017704;28;20045;-78
2023/12/22 05:22:08;;;;;;;4.75;1.00;;;;;;;;;;5014742;28;20028;-80
2023/12/22 05:24:33;;;;;;;4.88;0.65;;;;;;;;;;5014015;28;20030;-80
2023/12/22 05:26:58;;;;;;;2.55;0.90;;;;;;;;;;5014972;28;20033;-78
2023/12/22 05:29:24;;;;;;;2.38;0.50;;;;;;;;;;5016320;28;20030;-77
2023/12/22 05:31:49;;;;;;;1.55;0.52;;;;;;;;;;5026337;28;20041;-79
2023/12/22 05:34:14;;;;;;;2.63;0.75;;;;;;;;;;5008585;28;20026;-80
2023/12/22 05:36:53;;;;;;;9.10;0.95;;;;;;;;;;5028842;28;20037;-79
2023/12/22 05:39:18;;;;;;;2.83;0.60;;;;;;;;;;5034832;28;20377;-78
2023/12/22 05:41:43;;;;;;;2.03;0.60;;;;;;;;;;4998453;28;20021;-78
2023/12/22 05:44:08;;;;;;;2.97;0.80;;;;;;;;;;5012059;28;20046;-78
2023/12/22 05:46:40;;;;;;;2.33;0.70;;;;;;;;;;4996515;28;20022;-77
2023/12/22 05:49:06;;;;;;;3.45;0.60;;;;;;;;;;5013119;28;20025;-77
2023/12/22 05:51:49;;;;;;;2.08;0.63;;;;;;;;;;5031012;28;20030;-77
2023/12/22 05:54:15;;;;;;;5.07;0.90;;;;;;;;;;4982914;28;20032;-78
2023/12/22 05:56:40;;;;;;;4.75;0.95;;;;;;;;;;5013419;28;20030;-77
2023/12/22 05:59:05;;;;;;;4.60;0.98;;;;;;;;;;5019835;28;20037;-78
2023/12/22 06:01:31;;;;;;;3.00;0.97;;;;;;;;;;5022713;28;20021;-78
2023/12/22 06:03:56;;;;;;;6.80;1.00;;;;;;;;;;5036998;28;20297;-78
2023/12/22 06:06:21;;;;;;;4.27;0.90;;;;;;;;;;5019749;28;20251;-77
2023/12/22 06:08:47;;;;;;;5.13;0.80;;;;;;;;;;5018546;28;20278;-79
2023/12/22 06:11:12;;;;;;;3.57;0.93;;;;;;;;;;4998387;28;20545;-79
2023/12/22 06:13:37;;;;;;;5.78;2.20;;;;;;;;;;5015004;28;21094;-77
2023/12/22 06:16:03;;;;;;;4.60;1.10;;;;;;;;;;4996339;28;20022;-79
2023/12/22 06:18:28;;;;;;;3.92;1.10;;;;;;;;;;5017040;28;20421;-78
2023/12/22 06:20:54;;;;;;;2.90;0.83;;;;;;;;;;5030053;28;20037;-78
2023/12/22 06:23:19;;;;;;;8.30;1.00;;;;;;;;;;5022798;28;20267;-78
2023/12/22 06:25:46;;;;;;;5.82;1.00;;;;;;;;;;5012975;28;20027;-78
2023/12/22 06:28:12;;;;;;;5.25;1.20;;;;;;;;;;5016808;28;20032;-77
2023/12/22 06:30:37;;;;;;;3.05;0.70;;;;;;;;;;5015715;28;20022;-79
2023/12/22 06:33:02;;;;;;;4.07;1.05;;;;;;;;;;5030953;28;20400;-79
2023/12/22 06:35:28;;;;;;;10.35;0.98;;;;;;;;;;5029535;28;20083;-79
2023/12/22 06:37:54;;;;;;;6.95;1.10;;;;;;;;;;5011388;28;20026;-79
2023/12/22 06:40:19;;;;;;;14.43;3.88;;;;;;;;;;5019001;28;20034;-78
2023/12/22 06:42:44;;;;;;;4.47;1.13;;;;;;;;;;5019866;28;20393;-77
2023/12/22 06:45:10;;;;;;;4.35;1.00;;;;;;;;;;5020056;28;20396;-79
2023/12/22 06:47:35;;;;;;;3.60;0.80;;;;;;;;;;5036212;28;20021;-80
2023/12/22 06:50:01;;;;;;;6.00;0.77;;;;;;;;;;5029266;28;20028;-79
2023/12/22 06:52:26;;;;;;;7.22;1.00;;;;;;;;;;5029113;28;20504;-77
2023/12/22 06:54:52;;;;;;;3.23;0.77;;;;;;;;;;5016934;28;20397;-78
2023/12/22 06:58:31;;;;;;;;;;;;;;;;;;;;;
2023/12/22 07:05:09;;;;;;;7.10;1.08;;;;;;;;;;4964620;28;20057;-77
2023/12/22 07:08:44;;;;;;;2.97;0.82;;;;;;;;;;4999061;28;20033;-78
2023/12/22 07:11:12;;;;;;;7.78;1.77;;;;;;;;;;4961477;28;20046;-77
2023/12/22 07:17:02;;;;;;;5.88;1.23;;;;;;;;;;4957606;28;20140;-78
2023/12/22 07:22:53;;;;;;;4.63;0.85;;;;;;;;;;4957129;29;20090;-79
2023/12/22 07:25:22;;;;;;;4.35;0.85;;;;;;;;;;4940790;28;20035;-79
2023/12/22 07:35:55;;;;;;;1.58;0.60;;;;;;;;;;4901388;29;20040;-78
2023/12/22 07:39:18;;;;;;;3.60;0.88;;;;;;;;;;4918920;29;20078;-78
2023/12/22 07:42:11;;;;;;;;;;;;;;;;;;;;;
2023/12/22 07:45:45;;;;;;;;;;;;;;;;;;;;;
2023/12/22 07:48:35;;;;;;;1.92;0.73;;;;;;;;;;4906514;29;20119;-77
2023/12/22 07:54:47;;;;;;;5.53;0.90;;;;;;;;;;4933460;28;20047;-78
2023/12/22 07:57:16;;;;;;;2.92;0.75;;;;;;;;;;5001443;28;20026;-81
2023/12/22 08:00:18;;;;;;;4.20;0.90;;;;;;;;;;4995463;28;20030;-79
2023/12/22 08:03:38;;;;;;;4.50;1.85;;;;;;;;;;4978872;28;20454;-79
2023/12/22 08:06:03;;;;;;;5.32;1.00;;;;;;;;;;4977548;28;20125;-77
2023/12/22 08:08:38;;;;;;;21.08;5.53;;;;;;;;;;5018700;28;20187;-78
2023/12/22 08:11:03;;;;;;;2.75;0.80;;;;;;;;;;5002207;28;20501;-78
2023/12/22 08:13:28;;;;;;;3.50;0.70;;;;;;;;;;5025042;28;20036;-81
2023/12/22 08:15:54;;;;;;;8.60;1.63;;;;;;;;;;5002607;28;20559;-79
2023/12/22 08:18:19;;;;;;;1.15;0.43;;;;;;;;;;5016845;28;20049;-84
2023/12/22 08:20:44;;;;;;;1.08;0.55;;;;;;;;;;5033641;28;20029;-83
2023/12/22 08:23:12;;;;;;;1.00;0.32;;;;;;;;;;5008318;28;20447;-82
2023/12/22 08:25:37;;;;;;;0.63;0.32;;;;;;;;;;5007850;28;20385;-77
2023/12/22 08:28:03;;;;;;;1.67;0.47;;;;;;;;;;5006877;28;20032;-80
2023/12/22 08:30:28;;;;;;;1.33;0.60;;;;;;;;;;5018804;28;20437;-79
2023/12/22 08:32:53;;;;;;;0.68;0.60;;;;;;;;;;5025005;28;20033;-77
2023/12/22 08:35:19;;;;;;;1.02;0.55;;;;;;;;;;5018486;28;20025;-78
2023/12/22 08:39:32;;;;;;;2.35;0.30;;;;;;;;;;5115410;27;1155800;-78
2023/12/22 08:41:57;;;;;;;2.53;0.40;;;;;;;;;;5127204;28;20118;-80
2023/12/22 08:44:22;;;;;;;2.15;0.60;;;;;;;;;;5128028;28;20355;-80
2023/12/22 08:46:48;;;;;;;1.85;0.50;;;;;;;;;;5116557;28;20057;-79
2023/12/22 08:49:13;;;;;;;1.30;0.30;;;;;;;;;;5093356;28;20835;-80
2023/12/22 08:51:38;;;;;;;7.07;0.65;;;;;;;;;;5095879;28;20110;-80
2023/12/22 08:54:04;;;;;;;1.57;0.50;;;;;;;;;;5091828;28;20085;-79
2023/12/22 08:56:29;;;;;;;1.52;0.60;;;;;;;;;;5104956;28;20279;-84
2023/12/22 08:58:55;;;;;;;1.15;0.60;;;;;;;;;;5095885;28;20028;-79
2023/12/22 09:01:21;;;;;;;1.95;0.57;;;;;;;;;;5112265;28;20020;-79
2023/12/22 09:03:47;;;;;;;3.03;0.60;;;;;;;;;;5110424;28;20600;-79
2023/12/22 09:06:17;;;;;;;2.85;0.55;;;;;;;;;;5110104;28;20036;-78
2023/12/22 09:08:42;;;;;;;5.38;0.80;;;;;;;;;;5111955;28;20020;-79
2023/12/22 09:11:10;;;;;;;4.15;0.85;;;;;;;;;;5111143;28;20073;-78
2023/12/22 09:13:38;;;;;;;1.77;0.70;;;;;;;;;;5109122;28;20063;-77
2023/12/22 09:16:05;;;;;;;3.08;1.40;;;;;;;;;;5108634;28;20035;-78
2023/12/22 09:18:31;;;;;;;3.97;0.90;;;;;;;;;;5109918;28;20015;-79
2023/12/22 09:20:56;;;;;;;2.33;1.20;;;;;;;;;;5110340;28;20024;-77
2023/12/22 09:23:21;;;;;;;5.57;1.00;;;;;;;;;;5111974;28;20047;-77
2023/12/22 09:25:48;;;;;;;3.47;0.67;;;;;;;;;;5114392;28;20039;-79
2023/12/22 09:28:13;;;;;;;1.48;0.70;;;;;;;;;;5112747;28;20248;-79
2023/12/22 09:30:38;;;;;;;4.75;2.13;;;;;;;;;;5111370;28;20039;-78
2023/12/22 09:33:04;;;;;;;4.63;0.77;;;;;;;;;;5110114;28;20028;-79
2023/12/22 09:35:29;;;;;;;2.28;0.80;;;;;;;;;;5108777;28;20264;-80
2023/12/22 09:37:54;;;;;;;1.55;0.50;;;;;;;;;;5110303;28;20440;-79
2023/12/22 09:40:21;;;;;;;2.38;0.65;;;;;;;;;;5110551;28;20031;-78
2023/12/22 09:42:47;;;;;;;2.38;0.60;;;;;;;;;;5110214;28;20024;-77
2023/12/22 09:45:13;;;;;;;2.30;0.80;;;;;;;;;;5109236;28;20054;-77
2023/12/22 09:47:42;;;;;;;4.38;0.80;;;;;;;;;;5111313;28;20016;-79
2023/12/22 09:50:08;;;;;;;2.35;0.60;;;;;;;;;;5103943;28;20169;-79
2023/12/22 09:52:35;;;;;;;2.78;0.80;;;;;;;;;;5099340;28;20081;-79
2023/12/22 09:55:02;;;;;;;3.20;0.80;;;;;;;;;;5099772;28;20103;-78
2023/12/22 09:57:28;;;;;;;3.20;0.75;;;;;;;;;;5098637;28;20098;-78
2023/12/22 09:59:54;;;;;;;3.72;0.85;;;;;;;;;;5096411;28;20031;-78
2023/12/22 10:02:19;;;;;;;1.30;0.75;;;;;;;;;;5107954;28;20031;-79
2023/12/22 10:04:45;;;;;;;2.35;0.80;;;;;;;;;;5115818;28;20048;-80
2023/12/22 10:07:13;;;;;;;2.58;1.00;;;;;;;;;;5115913;28;20023;-79
2023/12/22 10:09:39;;;;;;;4.40;0.95;;;;;;;;;;5103778;28;20030;-79
2023/12/22 10:12:06;;;;;;;3.63;0.75;;;;;;;;;;5096988;28;20414;-79
2023/12/22 10:14:33;;;;;;;3.97;1.05;;;;;;;;;;5095785;28;20028;-79
2023/12/22 10:16:59;;;;;;;4.28;1.10;;;;;;;;;;5095791;28;20391;-80
2023/12/22 10:19:24;;;;;;;3.67;0.75;;;;;;;;;;5098291;28;20030;-79
2023/12/22 10:21:50;;;;;;;3.37;0.70;;;;;;;;;;5098185;28;20028;-80
2023/12/22 10:24:44;;;;;;;2.67;0.65;;;;;;;;;;5096088;28;20778;-79
2023/12/22 10:27:13;;;;;;;2.70;0.90;;;;;;;;;;5096550;28;20028;-77
2023/12/22 10:29:42;;;;;;;2.70;0.52;;;;;;;;;;5093639;28;20020;-78
2023/12/22 10:32:11;;;;;;;2.45;0.85;;;;;;;;;;5095694;28;20130;-78
2023/12/22 10:34:36;;;;;;;2.53;1.02;;;;;;;;;;5096413;28;20058;-79
2023/12/22 10:37:02;;;;;;;1.63;0.50;;;;;;;;;;5097814;28;20028;-79
2023/12/22 10:39:29;;;;;;;0.77;0.57;;;;;;;;;;5096715;28;20023;-79
2023/12/22 10:41:55;;;;;;;2.67;0.70;;;;;;;;;;5098712;28;20398;-77
2023/12/22 10:44:20;;;;;;;3.33;0.65;;;;;;;;;;5098534;28;20077;-78
2023/12/22 10:46:47;;;;;;;6.15;0.70;;;;;;;;;;5095939;28;20080;-79
2023/12/22 10:49:12;;;;;;;6.90;1.23;;;;;;;;;;5096029;28;20495;-78
2023/12/22 10:51:38;;;;;;;4.07;0.85;;;;;;;;;;5096412;28;20031;-78
2023/12/22 10:54:05;;;;;;;4.78;0.90;;;;;;;;;;5094465;28;20020;-78
2023/12/22 10:56:30;;;;;;;2.90;0.68;;;;;;;;;;5094436;28;20034;-78
2023/12/22 10:58:55;;;;;;;4.50;1.10;;;;;;;;;;5095472;28;20532;-79
2023/12/22 11:01:22;;;;;;;7.15;1.48;;;;;;;;;;5097004;28;20032;-78
2023/12/22 11:03:51;;;;;;;2.10;0.68;;;;;;;;;;5097977;28;20590;-78
2023/12/22 11:06:16;;;;;;;8.88;0.85;;;;;;;;;;5095499;28;20032;-78
2023/12/22 11:08:43;;;;;;;2.20;0.57;;;;;;;;;;5094804;28;20110;-77
2023/12/22 11:11:29;;;;;;;5.72;1.42;;;;;;;;;;5094056;28;20045;-78
2023/12/22 11:13:56;;;;;;;1.10;0.40;;;;;;;;;;5093914;28;20510;-79
2023/12/22 11:16:24;;;;;;;4.05;0.47;;;;;;;;;;5094037;28;20474;-78
2023/12/22 11:18:50;;;;;;;3.88;0.70;;;;;;;;;;5094050;28;20028;-78
2023/12/22 11:21:15;;;;;;;1.83;0.63;;;;;;;;;;5094961;28;20390;-78
2023/12/22 11:23:43;;;;;;;1.95;0.52;;;;;;;;;;5095095;28;20032;-78
2023/12/22 11:26:12;;;;;;;2.58;0.63;;;;;;;;;;5100889;28;20119;-80
2023/12/22 11:28:38;;;;;;;2.85;0.50;;;;;;;;;;5098518;28;20023;-78
2023/12/22 11:31:05;;;;;;;1.80;0.52;;;;;;;;;;5098282;28;20551;-79
2023/12/22 11:33:31;;;;;;;3.97;0.55;;;;;;;;;;5100325;28;20104;-79
2023/12/22 11:35:58;;;;;;;1.65;0.47;;;;;;;;;;5100279;28;20085;-79
2023/12/22 11:38:23;;;;;;;3.47;0.70;;;;;;;;;;5099173;28;20071;-79
2023/12/22 11:40:52;;;;;;;3.08;0.98;;;;;;;;;;5098077;28;20032;-78
2023/12/22 11:43:18;;;;;;;4.18;0.70;;;;;;;;;;5097762;28;20024;-77
2023/12/22 11:45:43;;;;;;;3.35;0.93;;;;;;;;;;5098752;28;20051;-80
2023/12/22 11:48:10;;;;;;;2.92;0.75;;;;;;;;;;5099002;28;20036;-79
2023/12/22 11:50:36;;;;;;;7.72;1.27;;;;;;;;;;5098388;28;20490;-80
2023/12/22 11:53:21;;;;;;;4.30;0.90;;;;;;;;;;5096263;28;20126;-79
2023/12/22 11:56:04;;;;;;;2.25;1.08;;;;;;;;;;5096760;28;20024;-79
2023/12/22 11:58:51;;;;;;;9.23;1.23;;;;;;;;;;5099544;28;20031;-79
2023/12/22 12:01:17;;;;;;;3.80;0.93;;;;;;;;;;5098233;28;20115;-79
2023/12/22 12:03:52;;;;;;;7.03;1.00;;;;;;;;;;5098214;28;20060;-78
2023/12/22 12:06:26;;;;;;;3.67;1.02;;;;;;;;;;5098931;28;20028;-79
2023/12/22 12:08:53;;;;;;;;;;;;;;;;;;5097044;28;20093;-80
2023/12/22 12:11:19;;;;;;;8.15;0.95;;;;;;;;;;5097404;28;19959;-79
2023/12/22 12:13:45;;;;;;;5.47;1.02;;;;;;;;;;5099004;28;20036;-79
2023/12/22 12:16:21;;;;;;;4.82;1.27;;;;;;;;;;5100096;28;20031;-79
2023/12/22 12:18:46;;;;;;;10.07;1.30;;;;;;;;;;5099977;28;20025;-79
2023/12/22 12:21:12;;;;;;;3.78;0.80;;;;;;;;;;5098467;28;20087;-78
2023/12/22 12:23:40;;;;;;;3.20;0.98;;;;;;;;;;5098610;28;20020;-77
2023/12/22 12:26:07;;;;;;;7.40;1.30;;;;;;;;;;5091299;28;20189;-78
2023/12/22 12:28:34;;;;;;;3.78;0.85;;;;;;;;;;5091735;28;20016;-79
2023/12/22 12:31:06;;;;;;;5.05;1.38;;;;;;;;;;5100813;28;20491;-80
2023/12/22 12:33:32;;;;;;;5.72;1.48;;;;;;;;;;5100268;28;20023;-78
2023/12/22 12:35:59;;;;;;;11.75;1.23;;;;;;;;;;5101193;28;20028;-78
2023/12/22 12:38:42;;;;;;;7.63;0.90;;;;;;;;;;5100492;28;20172;-79
2023/12/22 12:41:09;;;;;;;6.85;1.23;;;;;;;;;;5096628;28;20062;-78
2023/12/22 12:43:35;;;;;;;8.27;1.10;;;;;;;;;;5093541;28;20055;-79
2023/12/22 12:46:04;;;;;;;5.38;1.17;;;;;;;;;;5095074;28;20391;-78
2023/12/22 12:48:30;;;;;;;5.32;0.80;;;;;;;;;;5098198;28;20020;-79
2023/12/22 12:50:55;;;;;;;4.60;0.90;;;;;;;;;;5092017;28;20024;-79
2023/12/22 12:53:20;;;;;;;49.53;17.08;;;;;;;;;;5093095;28;20256;-78
2023/12/22 12:55:45;;;;;;;2.53;0.63;;;;;;;;;;5096538;28;20016;-79
2023/12/22 12:58:11;;;;;;;2.65;0.90;;;;;;;;;;5097453;28;20501;-80
2023/12/22 13:00:36;;;;;;;3.58;0.60;;;;;;;;;;5097812;28;20043;-78
2023/12/22 13:03:05;;;;;;;2.40;0.63;;;;;;;;;;5095470;28;20028;-76
2023/12/22 13:05:31;;;;;;;2.72;0.60;;;;;;;;;;5092231;28;20036;-78
2023/12/22 13:08:10;;;;;;;18.45;3.53;;;;;;;;;;5092354;28;20028;-78
2023/12/22 13:10:35;;;;;;;4.10;0.73;;;;;;;;;;5091090;28;20023;-78
2023/12/22 13:13:00;;;;;;;8.52;2.67;;;;;;;;;;5092475;28;20115;-78
2023/12/22 13:15:26;;;;;;;3.88;0.82;;;;;;;;;;5090936;28;20028;-78
2023/12/22 13:17:51;;;;;;;7.38;0.90;;;;;;;;;;5091009;28;20031;-79
2023/12/22 13:20:16;;;;;;;5.80;0.68;;;;;;;;;;5096727;28;20035;-79
2023/12/22 13:22:43;;;;;;;5.10;1.08;;;;;;;;;;5093715;28;20084;-79
2023/12/22 13:25:09;;;;;;;4.93;0.93;;;;;;;;;;5100476;28;20459;-79
2023/12/22 13:27:48;;;;;;;4.45;0.95;;;;;;;;;;5096355;28;20038;-79
2023/12/22 13:30:35;;;;;;;4.57;0.68;;;;;;;;;;5100406;28;20123;-79
2023/12/22 13:33:01;;;;;;;4.03;1.10;;;;;;;;;;5097114;28;20024;-78
2023/12/22 13:35:28;;;;;;;4.18;1.50;;;;;;;;;;5096038;28;20206;-79
2023/12/22 13:37:53;;;;;;;2.45;0.80;;;;;;;;;;5098485;28;20395;-79
2023/12/22 13:40:19;;;;;;;3.97;1.08;;;;;;;;;;5099422;28;20031;-79
2023/12/22 13:42:44;;;;;;;2.17;0.80;;;;;;;;;;5098377;28;20062;-79
2023/12/22 13:45:12;;;;;;;3.72;0.65;;;;;;;;;;5098855;28;20020;-78
2023/12/22 13:47:46;;;;;;;5.30;0.82;;;;;;;;;;5096230;28;20020;-78
2023/12/22 13:50:15;;;;;;;1.45;0.60;;;;;;;;;;5094659;28;20024;-79
2023/12/22 13:52:43;;;;;;;4.13;1.10;;;;;;;;;;5096141;28;20039;-79
2023/12/22 13:55:13;;;;;;;3.45;1.20;;;;;;;;;;5096132;28;20111;-79
2023/12/22 13:57:39;;;;;;;4.70;0.73;;;;;;;;;;5095196;28;20032;-79
2023/12/22 14:00:26;;;;;;;3.00;0.70;;;;;;;;;;5096493;28;20028;-79
2023/12/22 14:02:51;;;;;;;9.85;1.38;;;;;;;;;;5097578;28;20027;-79
2023/12/22 14:05:17;;;;;;;2.30;0.70;;;;;;;;;;5113306;28;20028;-79
2023/12/22 14:07:45;;;;;;;0.43;0.22;;;;;;;;;;5114125;28;20256;-78
2023/12/22 14:10:11;;;;;;;1.70;0.80;;;;;;;;;;5112371;28;20031;-79
2023/12/22 14:12:40;;;;;;;0.90;0.50;;;;;;;;;;5097880;28;20031;-78
2023/12/22 14:15:09;;;;;;;1.02;0.50;;;;;;;;;;5097596;28;20058;-79
2023/12/22 14:17:35;;;;;;;1.38;0.70;;;;;;;;;;5095450;28;20028;-80
2023/12/22 14:20:00;;;;;;;1.70;0.80;;;;;;;;;;5095275;28;20039;-79
2023/12/22 14:22:26;;;;;;;0.93;0.70;;;;;;;;;;5097087;28;20384;-80
2023/12/22 14:24:51;;;;;;;1.52;0.70;;;;;;;;;;5095287;28;20386;-80
2023/12/22 14:27:18;;;;;;;1.20;0.60;;;;;;;;;;5096672;28;20036;-79
2023/12/22 14:29:44;;;;;;;1.30;0.52;;;;;;;;;;5095522;28;20044;-79
2023/12/22 14:32:11;;;;;;;1.30;0.70;;;;;;;;;;5097064;28;20555;-79
2023/12/22 14:34:36;;;;;;;0.95;0.60;;;;;;;;;;5094189;28;20110;-78
2023/12/22 14:37:02;;;;;;;1.25;0.95;;;;;;;;;;5098177;28;20137;-79
2023/12/22 14:39:27;;;;;;;4.97;1.00;;;;;;;;;;5096709;28;20391;-80
2023/12/22 14:41:53;;;;;;;2.77;0.60;;;;;;;;;;5096949;28;20032;-79
2023/12/22 14:44:18;;;;;;;1.05;0.45;;;;;;;;;;5096034;28;20264;-78
2023/12/22 14:46:45;;;;;;;0.85;0.52;;;;;;;;;;5097111;28;20024;-79
2023/12/22 14:49:10;;;;;;;1.00;0.55;;;;;;;;;;5097306;28;20024;-79
2023/12/22 14:51:37;;;;;;;0.68;0.40;;;;;;;;;;5095400;28;20028;-79
2023/12/22 14:54:06;;;;;;;1.15;0.50;;;;;;;;;;5096738;28;20482;-79
2023/12/22 14:56:32;;;;;;;0.95;0.55;;;;;;;;;;5096657;28;20034;-79
2023/12/22 14:58:57;;;;;;;0.47;0.40;;;;;;;;;;5095530;28;20103;-78
2023/12/22 15:01:23;;;;;;;1.30;0.68;;;;;;;;;;5095804;28;20031;-78
2023/12/22 15:03:48;;;;;;;0.85;0.52;;;;;;;;;;5097124;28;20478;-79
2023/12/22 15:06:13;;;;;;;0.63;0.40;;;;;;;;;;5095578;28;20028;-79
2023/12/22 15:08:38;;;;;;;1.37;0.67;;;;;;;;;;5093183;28;20267;-78
2023/12/22 15:11:04;;;;;;;0.97;0.77;;;;;;;;;;5073625;28;20273;-78
2023/12/22 15:13:29;;;;;;;2.08;0.77;;;;;;;;;;5072955;28;20269;-78
2023/12/22 15:15:54;;;;;;;2.77;0.83;;;;;;;;;;5073328;28;20056;-79
2023/12/22 15:18:19;;;;;;;1.20;0.60;;;;;;;;;;5073473;28;20325;-78
2023/12/22 15:20:46;;;;;;;2.43;0.80;;;;;;;;;;5072981;28;20036;-78
2023/12/22 15:23:11;;;;;;;1.83;0.98;;;;;;;;;;5074316;28;20261;-79
2023/12/22 15:25:36;;;;;;;1.98;1.00;;;;;;;;;;5073029;28;20028;-78
2023/12/22 15:28:01;;;;;;;2.80;1.03;;;;;;;;;;5073600;28;20024;-79
2023/12/22 15:30:28;;;;;;;1.42;0.98;;;;;;;;;;5073660;28;20257;-78
2023/12/22 15:32:53;;;;;;;5.22;1.40;;;;;;;;;;5071766;28;20017;-79
2023/12/22 15:35:19;;;;;;;2.00;1.00;;;;;;;;;;5074887;28;20025;-78
2023/12/22 15:37:44;;;;;;;1.55;0.60;;;;;;;;;;5074735;28;20391;-79
2023/12/22 15:40:10;;;;;;;1.45;0.90;;;;;;;;;;5072378;28;20038;-79
2023/12/22 15:42:35;;;;;;;2.47;0.68;;;;;;;;;;5073075;28;20027;-78
2023/12/22 15:45:00;;;;;;;2.20;1.00;;;;;;;;;;5073016;28;20069;-78
2023/12/22 15:47:26;;;;;;;4.03;1.03;;;;;;;;;;5072102;28;20154;-78
2023/12/22 15:49:51;;;;;;;4.87;1.10;;;;;;;;;;5072943;28;20317;-78
2023/12/22 15:52:16;;;;;;;1.90;0.90;;;;;;;;;;5072069;28;20391;-78
2023/12/22 15:54:41;;;;;;;3.33;1.07;;;;;;;;;;5077169;28;20319;-79
2023/12/22 15:57:07;;;;;;;2.05;1.00;;;;;;;;;;5076451;28;20257;-78
2023/12/22 15:59:32;;;;;;;3.25;0.93;;;;;;;;;;5076773;28;20035;-78
2023/12/22 16:01:57;;;;;;;1.50;0.90;;;;;;;;;;5077867;28;20016;-82
2023/12/22 16:04:23;;;;;;;2.65;0.75;;;;;;;;;;5077107;28;20545;-79
2023/12/22 16:06:48;;;;;;;4.95;0.70;;;;;;;;;;5077458;28;20104;-78
2023/12/22 16:09:13;;;;;;;2.73;1.03;;;;;;;;;;5075468;28;20035;-78
2023/12/22 16:11:39;;;;;;;10.57;1.10;;;;;;;;;;5071481;28;20260;-77
2023/12/22 16:14:04;;;;;;;2.95;0.70;;;;;;;;;;5072232;28;20269;-79
2023/12/22 16:16:29;;;;;;;3.57;0.70;;;;;;;;;;5074235;28;20046;-80
2023/12/22 16:18:54;;;;;;;2.03;0.87;;;;;;;;;;5075270;28;20277;-80
2023/12/22 16:21:19;;;;;;;0.60;0.40;;;;;;;;;;5076755;28;20307;-80
2023/12/22 16:23:45;;;;;;;2.53;1.00;;;;;;;;;;5078204;28;20257;-79
2023/12/22 16:26:10;;;;;;;1.05;0.68;;;;;;;;;;5076252;28;20055;-78
2023/12/22 16:28:36;;;;;;;1.15;0.95;;;;;;;;;;5073344;28;20020;-79
2023/12/22 16:31:01;;;;;;;2.95;1.27;;;;;;;;;;5075408;28;20031;-78
2023/12/22 16:33:27;;;;;;;4.53;1.33;;;;;;;;;;5076194;28;20033;-79
2023/12/22 16:35:52;;;;;;;2.08;0.93;;;;;;;;;;5077296;28;20104;-79
2023/12/22 16:38:17;;;;;;;3.53;1.17;;;;;;;;;;5076339;28;20035;-78
2023/12/22 16:40:44;;;;;;;0.93;0.67;;;;;;;;;;5077006;28;20021;-81
2023/12/22 16:43:09;;;;;;;1.02;0.50;;;;;;;;;;5077128;28;20323;-79
2023/12/22 16:45:35;;;;;;;4.55;1.00;;;;;;;;;;5078201;28;20024;-79
2023/12/22 16:48:01;;;;;;;0.85;0.45;;;;;;;;;;5079001;28;20020;-79